UHHH/KHV METAR and TAF weather

Enter ICAO airport designator
Station Type Date Time Source
UHHH METAR 2019/04/21 22:00 UTC NOAA

UHHH 212200Z 26005MPS CAVOK 04/M10 Q1014 R23L/090060 NOSIG RMK QFE754/1006


Station Type Date Time Source
UHHH Decoded METAR 2019/04/21 22:00 UTC NOAA

Habarovsk, Russia (UHHH) 48-31N 135-10E 76M
Apr 21, 2019 - 06:00 PM EDT / 2019.04.21 2200 UTC
Wind: from the W (260 degrees) at 11 MPH (10 KT):0
Visibility: greater than 7 mile(s):0
Temperature: 39 F (4 C)
Dew Point: 14 F (-10 C)
Relative Humidity: 35%
Pressure (altimeter): 29.94 in. Hg (1014 hPa)
ob: UHHH 212200Z 26005MPS CAVOK 04/M10 Q1014 R23L/090060 NOSIG RMK QFE754/1006
cycle: 22

Station Type Date Time Source
UHHH TAF 2019/04/21 21:21 UTC NOAA

TAF TAF UHHH 211950Z 2121/2303 26005MPS CAVOK
TEMPO 2123/2206 28007G12MPS
TEMPO 2210/2212 14003MPS

Example: see airport list